Aérodrome :
LOGIN :

S'inscrire | Disclaimer

   EN    FR    IT 

 










Légende :    VFR   VFR Marginal   IFR   IFR Intensif   IFR Très Intensif
Visi : 
Plafond : 
>= 8 km
>= 3000ft
5 à 8 km
1000 à 3000 ft
1500m à 5 km
500 à 1000 ft
800 à 1500m
200 à 500 ft
< 800m
< 200 ft
Symboles :   Orages  Brouillard  Fortes neiges  Fortes précipitations  Vent > 20 kt
SIGMETs :   Divers  Orages  Givrage  Turbulence  Onde Orograph.  Cendres Volcan.







- Altitude de l'aérodrome : 2026 ft
- Code IATA : TOJ


LETO - Madrid Torrejon

DERNIER METAR :
  • 211300Z 16002KT 9999 FEW040 BKN057 30/15 Q1020 NOSIG

METARs EXPIRÉS :
  • 211200Z 24003KT 9999 FEW030 BKN057 27/16 Q1020 NOSIG
  • 211100Z 08002KT 9999 FEW030 BKN057 26/16 Q1021 NOSIG

TAF TAF LETO
Valide du 21 à 12h jusqu'au 22 à 12h UTC


211100Z 2112/2212 VRB05KT 9999 FEW040 TX30/2115Z TN16/2206Z
TEMPO 2112/2113 FEW040TCU
TEMPO 2113/2119 VRB18G28KT 3000 TS SHRA SCT040CB
TEMPO 2119/2122 03012KT
Pas de NOTAMs connus pour ce terrain.



MET'MAP, la Météo Aéronautique d'un coup d'oeil ! - Copyright ORBIFLY Décembre 2007 - Disclaimer

ORBIFLY MET'MAP TEAM :

Programmation & Développement : Alexandra Zaïnal
Conception & Développement : Baudouin d'Aumeries
Co-Programmation & Développement : Marc-Olivier Méhu
Soutien technique & logistique : Manuel Goepfert

Contact : metmap@orbifly.com




SOURCES & CREDITS :

   NOAA